VG64 weather

Lee Field
West Point, Virginia, United States

Public forecast

Using degrees Fahrenheit for public forecast. Weather courtesy of forecast.io.

METAR (pilot weather report)

Closest report is Middle Peninsula Regional Airport, 4.8 nm (8.9 km) ESE. Retrieved 2019/09/21 11:35 UTC (25 minutes ago):

KFYJ 211135Z AUTO 17003KT 10SM CLR 16/14 A3029 RMK AO1 T01600136

TAF (pilot weather forecast)

Closest forecast is Richmond International Airport, 22.5 nm (41.7 km) W. Retrieved 2019/09/21 06:42 UTC (5 hours ago):

TAF KRIC 210540Z 2106/2206 20006KT P6SM SKC FM212100 19005KT P6SM SCT080